AirNav   Air Wisconsin Up To $57,000 Bonus
 
 793 users online  

34NH Stone Song Heliport
Milford, New Hampshire, USA

GOING TO MILFORD?


FAA INFORMATION EFFECTIVE 02 JANUARY 2020

Location

FAA Identifier: 34NH
Lat/Long: 42-48-53.0400N 071-39-39.9000W
42-48.884000N 071-39.665000W
42.8147333,-71.6610833
(estimated)
Elevation: 360 ft. / 110 m (estimated)
From city: 2 miles SW of MILFORD, NH
Time zone: UTC -5 (UTC -4 during Daylight Saving Time)
Zip code: 03055

Heliport Operations

Heliport use: Private use. Permission required prior to landing
Activation date: 06/2006
Control tower: no
ARTCC: BOSTON CENTER
FSS: BANGOR FLIGHT SERVICE STATION
Attendance: UNATNDD
Wind indicator: yes
Segmented circle: no

Heliport Communications

WX AWOS-3PT at ASH (7 nm E): 125.1 (603-578-0473)
WX ASOS at MHT (12 nm NE): 119.55 (603-621-1766)
WX ASOS at AFN (15 nm W): 135.875 (603-532-6195)
WX ASOS at FIT (16 nm S): 135.175 (978-343-9121)

Nearby radio navigation aids

VOR radial/distance  VOR name  Freq  Var
MHTr271/13.2MANCHESTER VOR/DME114.4015W
GDMr061/23.8GARDNER VOR/DME110.6014W
CONr204/24.6CONCORD VOR/DME112.9015W
LWMr295/25.3LAWRENCE VOR/DME112.5015W
EENr101/27.8KEENE VORTAC109.4014W
PSMr262/39.8PEASE VOR/DME116.5016W

 
NDB name  Hdg/Dist  Freq  Var  ID
FITZY258/6.520915WMJ -- .---

Heliport Services

Runway Information

Helipad H1

Dimensions: 200 x 80 ft. / 61 x 24 m
Surface: turf
Traffic pattern: leftleft

Heliport Ownership and Management from official FAA records

Ownership: Privately-owned
Owner: STEPHEN TALARICO
162 ARMORY ROAD
MILFORD, NH 03055
Phone 603-673-1944
Manager: STEPHEN TALARICO
162 ARMORY ROAD
MILFORD, NH 03055
Phone 603-673-1944

Additional Remarks

OWNER DESIRES HELIPORT NOT BE CHARTED.
FOR CD CTC BOSTON APCH AT 603-594-5551.

Instrument Procedures

There are no published instrument procedures at 34NH.

Some nearby airports with instrument procedures:

KASH - Boire Field Airport (7 nm E)
KMHT - Manchester Airport (12 nm NE)
KAFN - Jaffrey Airport-Silver Ranch (15 nm W)
KFIT - Fitchburg Municipal Airport (16 nm S)
6B6 - Minute Man Air Field (22 nm S)
 
Loc | Ops | Rwys | IFR | FBO | Links
Com | Nav | Svcs | Stats | Notes
Area around 34NH (Stone Song Heliport)
 
Road maps at: MapQuest Bing Google
 
Aerial photo
No photo
 
Sectional chart

 
Airport distance calculator
Flying to Stone Song Heliport? Find the distance to fly.

From to 34NH

Sunrise and sunset
Times for 26-Jan-2020
 Local
(UTC-5)
 Zulu
(UTC)
Morning civil twilight06:3811:38
Sunrise07:0812:08
Sunset16:5021:50
Evening civil twilight17:2122:21

Current date and time
Zulu (UTC)  26-Jan-2020 05:31:34
Local (UTC-5)  26-Jan-2020 00:31:34
 
METAR
KASH 
7nm SE 
260507Z AUTO 29006KT 3SM -RA BR OVC003 05/05 A2969 RMK AO2 PNO $
KMHT 
12nm NE 
260453Z 36005KT 1SM R35/P6000FT -RA BR OVC006 05/04 A2968 RMK AO2 SFC VIS 2 SLP068 P0003 T00500044 400610022
KAFN 
15nm W 
260452Z AUTO VRB03KT 4SM BR OVC003 03/02 A2969 RMK AO2 RAE0354 SLP066 P0000 T00330022 400390006
KFIT 
16nm S 
260522Z AUTO 30004KT 1 3/4SM BR OVC006 04/03 A2969 RMK AO2 VIS 1/2V5 T00390028
TAF
KMHT 
12nm NE 
260252Z 2603/2624 VRB05KT 4SM -RA BR OVC006 WS020/18040KT FM260400 28005KT P6SM BKN004 OVC006 FM261400 26008G15KT P6SM FEW100
NOTAMs
Click for the latest NOTAMs
NOTAMs are issued by the DoD/FAA and will open in a separate window not controlled by AirNav.

 

 
 

Would you like to see your business listed on this page?

 If your business provides an interesting product or service to pilots, flight crews, aircraft, or users of the Stone Song Heliport, you should consider listing it here.  To start the listing process, click on the button below
 
Add a business
 

Other Pages about Stone Song Heliport

Update a link
 
Copyright © AirNav, LLC. All rights reserved. Privacy Policy  Contact